createdAt,value
2023-01-06T02:47:58.934Z,98.76
2023-01-06T02:50:53.438Z,99.00
2023-01-06T02:53:52.863Z,99.46
2023-01-06T02:56:24.441Z,98.72
2023-01-06T02:59:07.306Z,98.92
2023-01-06T03:01:37.683Z,98.64
2023-01-06T03:04:08.742Z,98.35
2023-01-06T03:06:36.291Z,98.12
2023-01-06T03:09:03.773Z,98.18
2023-01-06T03:11:31.465Z,95.52
2023-01-06T03:14:17.758Z,95.11
2023-01-06T03:16:44.404Z,95.21
2023-01-06T03:19:10.902Z,94.82
2023-01-06T03:21:41.232Z,94.73
2023-01-06T03:24:09.024Z,95.03
2023-01-06T03:26:36.039Z,95.08
2023-01-06T03:29:03.298Z,94.76
2023-01-06T03:31:57.740Z,95.71
2023-01-06T03:34:42.799Z,95.05
2023-01-06T03:37:27.864Z,94.54
2023-01-06T03:40:01.660Z,94.08
2023-01-06T03:42:51.312Z,94.10
2023-01-06T03:45:42.354Z,93.69
2023-01-06T03:48:14.036Z,93.56
2023-01-06T03:50:43.777Z,93.66
2023-01-06T03:53:24.086Z,93.35
2023-01-06T03:55:55.721Z,93.87
2023-01-06T03:58:23.170Z,94.23
2023-01-06T04:00:49.703Z,94.28
2023-01-06T04:03:16.522Z,94.41
2023-01-06T04:05:43.073Z,94.23
2023-01-06T04:08:09.625Z,93.67
2023-01-06T04:10:36.099Z,93.24
2023-01-06T04:13:02.619Z,93.25
2023-01-06T04:15:29.528Z,91.96
2023-01-06T04:17:56.448Z,92.53
2023-01-06T04:20:26.106Z,91.85
2023-01-06T04:22:56.750Z,91.90
2023-01-06T04:25:23.666Z,91.43
2023-01-06T04:27:50.247Z,91.76
2023-01-06T04:30:17.132Z,92.16
2023-01-06T04:32:43.669Z,92.12
2023-01-06T04:35:11.174Z,92.64
2023-01-06T04:37:37.786Z,92.56
2023-01-06T04:40:04.737Z,93.00
2023-01-06T04:42:51.191Z,92.70
2023-01-06T04:45:18.788Z,93.11
2023-01-06T04:47:45.420Z,92.82
2023-01-06T04:50:12.175Z,92.82
2023-01-06T04:52:38.632Z,93.79
2023-01-06T04:55:05.329Z,93.44
2023-01-06T04:57:31.830Z,93.84
2023-01-06T04:59:58.362Z,93.94
2023-01-06T05:02:24.965Z,94.06
2023-01-06T05:04:51.463Z,93.55
2023-01-06T05:07:17.912Z,94.75
2023-01-06T05:09:44.406Z,94.25
2023-01-06T05:12:10.901Z,94.14
2023-01-06T05:14:37.384Z,94.37
2023-01-06T05:17:03.914Z,94.37
2023-01-06T05:19:30.467Z,94.40
2023-01-06T05:21:56.945Z,94.39
2023-01-06T05:24:23.564Z,94.47
2023-01-06T05:26:50.019Z,94.71
2023-01-06T05:29:17.514Z,94.28
2023-01-06T05:31:44.111Z,94.70
2023-01-06T05:34:11.560Z,94.26
2023-01-06T05:36:38.115Z,94.08
2023-01-06T05:39:04.692Z,94.66
2023-01-06T05:41:31.361Z,94.98
2023-01-06T05:43:57.932Z,94.56
2023-01-06T05:46:24.431Z,94.28
2023-01-06T05:48:50.980Z,93.39
2023-01-06T05:51:17.665Z,93.94
2023-01-06T05:53:46.583Z,94.41
2023-01-06T05:56:16.040Z,94.59
2023-01-06T05:58:45.653Z,94.21
2023-01-06T06:01:23.432Z,94.20
2023-01-06T06:03:50.778Z,94.23
2023-01-06T06:06:17.986Z,94.85
2023-01-06T06:08:44.553Z,94.02
2023-01-06T06:11:12.952Z,94.65
2023-01-06T06:13:44.891Z,94.62
2023-01-06T06:16:13.074Z,95.21
2023-01-06T06:18:43.937Z,94.78
2023-01-06T06:21:12.572Z,95.08
2023-01-06T06:23:39.440Z,94.94
2023-01-06T06:26:06.375Z,95.06
2023-01-06T06:28:34.248Z,95.74
2023-01-06T06:31:08.939Z,95.74
2023-01-06T06:33:35.870Z,95.81
2023-01-06T06:36:03.976Z,95.90
2023-01-06T06:38:30.624Z,95.67
2023-01-06T06:40:57.188Z,95.54
2023-01-06T06:43:24.042Z,95.49
2023-01-06T06:45:50.605Z,95.50
2023-01-06T06:48:17.351Z,95.98
2023-01-06T06:50:43.819Z,96.13
2023-01-06T06:53:10.299Z,95.60
2023-01-06T06:55:36.879Z,95.60
2023-01-06T06:58:03.365Z,95.50
2023-01-06T07:00:29.835Z,96.09
2023-01-06T07:02:56.382Z,96.21
2023-01-06T07:05:25.549Z,95.90
2023-01-06T07:07:52.314Z,95.80
2023-01-06T07:10:21.935Z,95.99
2023-01-06T07:12:48.470Z,96.34
2023-01-06T07:15:15.056Z,96.08
2023-01-06T07:17:44.207Z,95.71
2023-01-06T07:20:11.256Z,95.98
2023-01-06T07:22:41.503Z,96.23
2023-01-06T07:25:09.444Z,96.03
2023-01-06T07:27:36.813Z,96.28
2023-01-06T07:30:06.656Z,94.82
2023-01-06T07:32:33.576Z,95.56
2023-01-06T07:35:00.150Z,95.48
2023-01-06T07:37:26.860Z,94.74
2023-01-06T07:39:53.610Z,95.04
2023-01-06T07:42:21.521Z,95.04
2023-01-06T07:44:48.188Z,94.90
2023-01-06T07:47:14.865Z,94.94
2023-01-06T07:49:41.398Z,95.03
2023-01-06T07:52:07.980Z,94.45
2023-01-06T07:54:34.870Z,93.50
2023-01-06T07:57:01.643Z,93.02
2023-01-06T07:59:28.632Z,92.34
2023-01-06T08:01:55.601Z,92.85
2023-01-06T08:04:22.164Z,93.05
2023-01-06T08:06:48.676Z,93.01
2023-01-06T08:09:15.413Z,92.97
2023-01-06T08:11:41.962Z,93.18
2023-01-06T08:14:08.520Z,93.53
2023-01-06T08:16:35.210Z,93.19
2023-01-06T08:19:04.304Z,92.35
2023-01-06T08:21:30.824Z,91.42
2023-01-06T08:23:57.487Z,91.92
2023-01-06T08:26:24.149Z,91.98
2023-01-06T08:28:50.903Z,92.14
2023-01-06T08:31:20.822Z,92.28
2023-01-06T08:33:47.654Z,92.35
2023-01-06T08:36:17.503Z,92.32
2023-01-06T08:38:44.390Z,92.21
2023-01-06T08:41:11.518Z,91.42
2023-01-06T08:43:39.770Z,91.92
2023-01-06T08:46:08.024Z,91.50
2023-01-06T08:48:35.357Z,90.91
2023-01-06T08:51:07.845Z,90.52
2023-01-06T08:53:34.794Z,90.71
2023-01-06T08:56:01.707Z,91.09
2023-01-06T08:58:28.361Z,90.84
2023-01-06T09:00:56.459Z,90.66
2023-01-06T09:03:23.154Z,89.46
2023-01-06T09:05:56.150Z,89.32
2023-01-06T09:08:23.324Z,88.78
2023-01-06T09:10:50.822Z,89.49
2023-01-06T09:13:17.862Z,89.72
2023-01-06T09:15:45.161Z,88.84
2023-01-06T09:18:12.229Z,89.88
2023-01-06T09:20:38.757Z,89.99
2023-01-06T09:23:05.306Z,89.08
2023-01-06T09:25:32.012Z,89.38
2023-01-06T09:27:59.405Z,89.29
2023-01-06T09:30:26.316Z,89.30
2023-01-06T09:32:52.907Z,88.86
2023-01-06T09:35:20.553Z,88.32
2023-01-06T09:37:47.376Z,88.47
2023-01-06T09:40:27.446Z,87.66
2023-01-06T09:43:41.231Z,88.43
2023-01-06T09:46:09.144Z,88.20
2023-01-06T09:48:40.681Z,87.93
2023-01-06T09:51:07.551Z,88.43
2023-01-06T09:53:39.323Z,89.38
2023-01-06T09:56:10.358Z,89.51
2023-01-06T09:58:46.780Z,89.46
2023-01-06T10:01:17.005Z,88.40
2023-01-06T10:03:46.370Z,88.01
2023-01-06T10:06:37.150Z,89.14
2023-01-06T10:09:25.275Z,89.56
2023-01-06T10:12:19.461Z,88.82
2023-01-06T10:15:16.983Z,89.24
2023-01-06T10:18:11.608Z,89.14
2023-01-06T10:20:46.454Z,87.96
2023-01-06T10:24:06.854Z,87.96
2023-01-06T10:26:44.243Z,88.72
2023-01-06T10:29:21.620Z,88.69
2023-01-06T10:31:49.569Z,87.10
2023-01-06T10:34:27.073Z,86.85
2023-01-06T10:37:01.810Z,87.12
2023-01-06T10:39:29.656Z,87.03
2023-01-06T10:42:20.596Z,87.29
2023-01-06T10:44:47.328Z,87.69
2023-01-06T10:47:38.340Z,86.97
2023-01-06T10:50:05.700Z,86.43
2023-01-06T10:52:33.185Z,87.41
2023-01-06T10:55:03.955Z,86.96
2023-01-06T10:57:34.520Z,87.72
2023-01-06T11:00:23.084Z,88.56
2023-01-06T11:02:51.460Z,89.52
2023-01-06T11:05:23.975Z,90.48
2023-01-06T11:08:11.384Z,90.89
2023-01-06T11:10:42.479Z,91.17
2023-01-06T11:13:23.737Z,90.83
2023-01-06T11:15:50.429Z,92.02
2023-01-06T11:18:27.608Z,91.31
2023-01-06T11:21:10.093Z,91.12
2023-01-06T11:23:39.923Z,91.56
2023-01-06T11:26:20.025Z,91.00
2023-01-06T11:28:49.009Z,90.62
2023-01-06T11:31:15.585Z,89.05
2023-01-06T11:33:51.108Z,89.88
2023-01-06T11:36:19.154Z,90.06
2023-01-06T11:38:48.303Z,89.73
2023-01-06T11:41:27.339Z,87.07
2023-01-06T11:43:57.710Z,86.85
2023-01-06T11:46:25.580Z,87.51
2023-01-06T11:49:03.661Z,87.79
2023-01-06T11:51:47.493Z,86.87
2023-01-06T11:54:40.024Z,87.49
2023-01-06T11:57:16.456Z,88.89
2023-01-06T12:00:06.300Z,88.71
2023-01-06T12:02:53.082Z,89.12
2023-01-06T12:05:37.688Z,89.27
2023-01-06T12:08:13.712Z,88.62
2023-01-06T12:10:42.234Z,86.89
2023-01-06T12:13:12.768Z,87.38
2023-01-06T12:15:40.930Z,86.23
2023-01-06T12:18:14.633Z,86.73
2023-01-06T12:20:44.823Z,87.36
2023-01-06T12:23:42.619Z,87.05
2023-01-06T12:26:17.356Z,87.57
2023-01-06T12:28:46.145Z,87.41
2023-01-06T12:31:27.645Z,86.80
2023-01-06T12:34:11.539Z,87.04
2023-01-06T12:36:46.242Z,87.78
2023-01-06T12:39:25.581Z,87.65
2023-01-06T12:41:56.294Z,86.97
2023-01-06T12:44:44.292Z,87.18
2023-01-06T12:47:41.439Z,87.09
2023-01-06T12:50:10.591Z,87.56
2023-01-06T12:52:47.288Z,88.19
2023-01-06T12:55:20.682Z,87.97
2023-01-06T12:58:16.539Z,88.95
2023-01-06T13:00:43.297Z,89.72
2023-01-06T13:03:31.294Z,88.54
2023-01-06T13:06:25.274Z,88.97
2023-01-06T13:09:13.537Z,89.44
2023-01-06T13:11:58.549Z,89.72
2023-01-06T13:14:25.022Z,90.17
2023-01-06T13:16:55.886Z,89.15
2023-01-06T13:19:40.883Z,90.06
2023-01-06T13:22:10.134Z,90.38
2023-01-06T13:24:57.885Z,90.00
2023-01-06T13:27:37.291Z,89.88
2023-01-06T13:30:15.924Z,89.67
2023-01-06T13:33:16.206Z,90.64
2023-01-06T13:36:02.343Z,90.51
2023-01-06T13:38:34.545Z,90.78
2023-01-06T13:41:03.054Z,90.37
2023-01-06T13:43:31.812Z,90.21
2023-01-06T13:46:04.793Z,90.63
2023-01-06T13:48:36.108Z,89.34
2023-01-06T13:51:04.858Z,90.11
2023-01-06T13:53:38.543Z,90.72
2023-01-06T13:56:13.933Z,91.08
2023-01-06T13:58:45.097Z,91.03
2023-01-06T14:01:15.772Z,90.99
2023-01-06T14:03:43.149Z,91.81
2023-01-06T14:06:14.154Z,92.08
2023-01-06T14:08:57.407Z,92.35
2023-01-06T14:11:28.727Z,91.63
2023-01-06T14:14:00.584Z,91.68
2023-01-06T14:16:48.252Z,92.15
2023-01-06T14:19:17.417Z,92.70
2023-01-06T14:21:44.677Z,92.88
2023-01-06T14:24:31.450Z,93.12
2023-01-06T14:27:03.734Z,92.62
2023-01-06T14:29:43.039Z,92.26
2023-01-06T14:32:17.486Z,91.96
2023-01-06T14:34:50.462Z,92.63
2023-01-06T14:37:19.366Z,92.24
2023-01-06T14:39:50.172Z,91.54
2023-01-06T14:42:39.229Z,90.54
2023-01-06T14:45:29.650Z,90.04
2023-01-06T14:48:12.789Z,89.74
2023-01-06T14:50:47.309Z,90.30
2023-01-06T14:53:33.643Z,90.13
2023-01-06T14:56:28.077Z,90.94
2023-01-06T14:59:26.836Z,92.02
2023-01-06T15:01:57.995Z,92.42
2023-01-06T15:04:30.380Z,91.36
2023-01-06T15:07:03.287Z,91.92
2023-01-06T15:09:30.070Z,92.40
2023-01-06T15:11:56.894Z,91.53
2023-01-06T15:14:32.288Z,91.37
2023-01-06T15:17:05.257Z,91.63
2023-01-06T15:19:32.076Z,91.99
2023-01-06T15:22:00.029Z,91.93
2023-01-06T15:24:35.475Z,92.12
2023-01-06T15:27:06.846Z,92.11
2023-01-06T15:29:33.852Z,92.49
2023-01-06T15:32:00.909Z,92.59
2023-01-06T15:34:33.702Z,92.86
2023-01-06T15:37:01.385Z,93.02
2023-01-06T15:39:30.069Z,93.46
2023-01-06T15:41:57.349Z,92.93
2023-01-06T15:44:31.640Z,93.55
2023-01-06T15:47:26.894Z,93.40
2023-01-06T15:49:56.987Z,93.07
2023-01-06T15:52:28.052Z,93.13
2023-01-06T15:54:56.805Z,93.24
2023-01-06T15:57:24.061Z,93.50
2023-01-06T16:00:04.475Z,93.43
2023-01-06T16:02:31.923Z,93.73
2023-01-06T16:05:00.512Z,94.32
2023-01-06T16:07:41.915Z,94.08
2023-01-06T16:10:32.028Z,94.16
2023-01-06T16:13:18.318Z,94.48
2023-01-06T16:15:50.669Z,95.23
2023-01-06T16:18:27.167Z,95.74
2023-01-06T16:20:54.221Z,95.94
2023-01-06T16:23:31.272Z,97.55
2023-01-06T16:26:20.848Z,97.29
2023-01-06T16:28:50.757Z,98.02
2023-01-06T16:31:30.477Z,98.28
2023-01-06T16:34:22.305Z,98.93
2023-01-06T16:36:49.361Z,99.80
2023-01-06T16:39:16.045Z,100.00
2023-01-06T16:42:27.274Z,100.00
2023-01-06T16:45:00.968Z,100.00
2023-01-06T16:47:27.814Z,100.00
2023-01-06T16:49:54.448Z,100.00
2023-01-06T16:52:20.943Z,100.00
2023-01-06T16:54:52.719Z,100.00
2023-01-06T16:57:20.523Z,100.00
2023-01-06T16:59:47.189Z,100.00
2023-01-06T17:02:16.173Z,100.00
2023-01-06T17:04:46.931Z,100.00
2023-01-06T17:07:15.153Z,100.00
2023-01-06T17:09:42.699Z,100.00
2023-01-06T17:12:12.215Z,100.00
2023-01-06T17:14:38.775Z,100.00
2023-01-06T17:17:23.710Z,100.00
2023-01-06T17:19:50.825Z,100.00
2023-01-06T17:22:28.270Z,100.00
2023-01-06T17:24:59.238Z,100.00
2023-01-06T17:27:27.711Z,100.00
2023-01-06T17:29:55.572Z,100.00
2023-01-06T17:32:34.124Z,100.00
2023-01-06T17:35:01.394Z,100.00
2023-01-06T17:37:30.061Z,100.00
2023-01-06T17:39:57.112Z,100.00
2023-01-06T17:42:28.214Z,100.00
2023-01-06T17:44:56.947Z,100.00
2023-01-06T17:47:23.341Z,100.00
2023-01-06T17:49:54.977Z,100.00
2023-01-06T17:52:32.842Z,100.00
2023-01-06T17:55:44.183Z,100.00
2023-01-06T17:58:19.069Z,100.00
2023-01-06T18:00:46.620Z,100.00
2023-01-06T18:03:19.264Z,100.00
2023-01-06T18:05:46.049Z,100.00
2023-01-06T18:08:15.101Z,100.00
2023-01-06T18:10:46.127Z,100.00
2023-01-06T18:13:23.106Z,100.00
2023-01-06T18:15:54.117Z,100.00
2023-01-06T18:18:32.212Z,100.00
2023-01-06T18:21:36.207Z,100.00
2023-01-06T18:24:23.161Z,100.00
2023-01-06T18:26:56.520Z,100.00
2023-01-06T18:29:30.344Z,100.00
2023-01-06T18:32:22.382Z,100.00
2023-01-06T18:34:54.211Z,100.00
2023-01-06T18:37:26.007Z,100.00
2023-01-06T18:39:56.624Z,100.00
2023-01-06T18:42:36.022Z,100.00
2023-01-06T18:45:18.756Z,100.00
2023-01-06T18:47:57.805Z,100.00
2023-01-06T18:50:33.608Z,100.00
2023-01-06T18:53:22.919Z,100.00
2023-01-06T18:55:51.507Z,100.00
2023-01-06T18:58:42.125Z,100.00
2023-01-06T19:01:35.119Z,100.00
2023-01-06T19:04:22.477Z,100.00
2023-01-06T19:06:54.551Z,100.00
2023-01-06T19:09:38.575Z,100.00
2023-01-06T19:12:08.035Z,100.00
2023-01-06T19:14:38.591Z,100.00
2023-01-06T19:17:23.986Z,100.00
2023-01-06T19:19:56.168Z,100.00
2023-01-06T19:22:28.316Z,100.00
2023-01-06T19:25:03.601Z,100.00
2023-01-06T19:27:39.468Z,100.00
2023-01-06T19:30:43.371Z,100.00
2023-01-06T19:33:34.926Z,100.00
2023-01-06T19:36:04.626Z,100.00
2023-01-06T19:38:38.848Z,100.00
2023-01-06T19:41:09.664Z,100.00
2023-01-06T19:43:36.525Z,100.00
2023-01-06T19:46:05.017Z,100.00
2023-01-06T19:48:39.372Z,100.00
2023-01-06T19:51:21.251Z,100.00
2023-01-06T19:53:53.682Z,100.00
2023-01-06T19:56:26.347Z,100.00
2023-01-06T19:58:56.531Z,100.00
2023-01-06T20:01:23.702Z,100.00
2023-01-06T20:03:54.968Z,100.00
2023-01-06T20:06:22.621Z,100.00
2023-01-06T20:08:52.400Z,100.00
2023-01-06T20:11:25.455Z,100.00
2023-01-06T20:13:52.481Z,100.00
2023-01-06T20:16:20.175Z,100.00
2023-01-06T20:18:46.851Z,100.00
2023-01-06T20:21:13.554Z,100.00
2023-01-06T20:23:40.232Z,100.00
2023-01-06T20:26:07.181Z,100.00
2023-01-06T20:28:34.020Z,100.00
2023-01-06T20:31:00.725Z,100.00
2023-01-06T20:33:27.421Z,100.00
2023-01-06T20:35:54.189Z,100.00
2023-01-06T20:38:20.904Z,100.00
2023-01-06T20:40:47.656Z,100.00
2023-01-06T20:43:14.422Z,100.00
2023-01-06T20:45:41.093Z,100.00
2023-01-06T20:48:07.764Z,100.00
2023-01-06T20:50:34.595Z,100.00
2023-01-06T20:53:01.275Z,100.00
2023-01-06T20:55:27.745Z,100.00
2023-01-06T20:57:54.419Z,100.00
2023-01-06T21:00:21.151Z,100.00
2023-01-06T21:02:47.754Z,100.00
2023-01-06T21:05:14.483Z,100.00
2023-01-06T21:07:41.218Z,100.00
2023-01-06T21:10:08.326Z,100.00
2023-01-06T21:12:35.085Z,100.00
2023-01-06T21:15:01.709Z,100.00
2023-01-06T21:17:28.311Z,100.00
2023-01-06T21:19:55.525Z,100.00
2023-01-06T21:22:22.390Z,100.00
2023-01-06T21:24:48.933Z,100.00
2023-01-06T21:27:15.649Z,100.00
2023-01-06T21:29:42.209Z,100.00
2023-01-06T21:32:08.984Z,100.00
2023-01-06T21:34:35.704Z,100.00
2023-01-06T21:37:02.269Z,100.00
2023-01-06T21:39:28.795Z,100.00
2023-01-06T21:42:14.356Z,100.00
2023-01-06T21:44:40.970Z,100.00
2023-01-06T21:47:07.542Z,100.00
2023-01-06T21:49:34.100Z,100.00
2023-01-06T21:52:02.365Z,100.00
2023-01-06T21:54:28.925Z,100.00
2023-01-06T21:56:55.657Z,100.00
2023-01-06T21:59:22.181Z,100.00
2023-01-06T22:01:48.942Z,100.00
2023-01-06T22:04:15.685Z,100.00
2023-01-06T22:06:43.316Z,100.00
2023-01-06T22:09:11.249Z,100.00
2023-01-06T22:11:39.712Z,100.00
2023-01-06T22:14:06.789Z,100.00
2023-01-06T22:16:33.531Z,100.00
2023-01-06T22:19:00.231Z,100.00
2023-01-06T22:21:27.454Z,100.00
2023-01-06T22:23:54.776Z,100.00
2023-01-06T22:26:21.481Z,100.00
2023-01-06T22:28:47.991Z,100.00
2023-01-06T22:31:14.623Z,100.00
2023-01-06T22:33:41.340Z,100.00
2023-01-06T22:36:08.164Z,100.00
2023-01-06T22:38:34.693Z,100.00
2023-01-06T22:41:01.662Z,100.00
2023-01-06T22:43:28.219Z,100.00
2023-01-06T22:45:56.672Z,100.00
2023-01-06T22:48:23.769Z,100.00
2023-01-06T22:51:02.133Z,100.00
2023-01-06T22:53:29.942Z,100.00
2023-01-06T22:56:04.743Z,100.00
2023-01-06T22:58:32.840Z,100.00
2023-01-06T23:00:59.589Z,100.00
2023-01-06T23:03:26.315Z,100.00
2023-01-06T23:06:01.772Z,100.00
2023-01-06T23:08:29.990Z,100.00
2023-01-06T23:11:10.570Z,100.00
2023-01-06T23:13:38.683Z,100.00
2023-01-06T23:16:07.772Z,100.00
2023-01-06T23:18:36.230Z,100.00
2023-01-06T23:21:08.117Z,100.00
2023-01-06T23:23:35.449Z,100.00
2023-01-06T23:26:08.155Z,100.00
2023-01-06T23:28:35.080Z,100.00
2023-01-06T23:31:22.879Z,100.00
2023-01-06T23:33:52.193Z,100.00
2023-01-06T23:36:20.273Z,100.00
2023-01-06T23:38:47.346Z,100.00
2023-01-06T23:41:16.387Z,100.00
2023-01-06T23:43:43.502Z,100.00
2023-01-06T23:46:21.581Z,100.00
2023-01-06T23:48:48.851Z,100.00
2023-01-06T23:51:16.628Z,100.00
2023-01-06T23:53:43.479Z,100.00
2023-01-06T23:56:19.879Z,100.00
2023-01-06T23:58:49.111Z,100.00
